Duwamish, Washington
Current Conditions -  °F | °C
As of 7:32 PM on Sunday 21 Dec 2014 (Local Time) from KSEA Reporting Station
Overcast Overcast  
Wind Chill: 52°   Ceiling: 14000
Heat Index: 52°   Visibility: 10mi
Dew Point: 45°   Wind: 12mph
Humidity: 76%   Direction: 210°SSW
Pressure: 30.07"   Gusts: NA
Location:  47.4488°N, 122.28°W
Report Text: KSEA 220332Z 21010KT 10SM SCT017 OVC140 11/07 A3007 RMK AO2
Loading
Personal Weather Stations






























Interactive Weather Map New forecast layout! Learn more

10-Day Weather Forecast

Advertisements
Track Severe Weather on mobile